createdAt,value
2023-05-11T00:00:44.698Z,4.20
2023-05-11T00:03:12.655Z,4.40
2023-05-11T00:05:40.388Z,6.20
2023-05-11T00:08:07.870Z,6.80
2023-05-11T00:10:35.373Z,6.00
2023-05-11T00:13:02.930Z,5.00
2023-05-11T00:15:30.754Z,4.00
2023-05-11T00:17:58.148Z,7.20
2023-05-11T00:20:25.802Z,7.00
2023-05-11T00:22:53.324Z,6.20
2023-05-11T00:25:21.053Z,5.80
2023-05-11T00:27:48.645Z,2.80
2023-05-11T00:30:17.017Z,4.00
2023-05-11T00:32:45.465Z,6.60
2023-05-11T00:35:13.407Z,4.80
2023-05-11T00:37:41.614Z,7.00
2023-05-11T00:40:09.453Z,3.60
2023-05-11T00:42:37.023Z,5.00
2023-05-11T00:45:05.141Z,3.00
2023-05-11T00:47:33.153Z,5.80
2023-05-11T00:50:00.920Z,5.00
2023-05-11T00:52:28.519Z,5.40
2023-05-11T00:54:56.248Z,4.40
2023-05-11T00:57:24.234Z,3.40
2023-05-11T00:59:51.781Z,5.20
2023-05-11T01:02:19.563Z,1.60
2023-05-11T01:04:47.083Z,3.60
2023-05-11T01:07:25.706Z,3.80
2023-05-11T01:10:15.853Z,5.00
2023-05-11T01:13:04.941Z,7.80
2023-05-11T01:15:52.556Z,4.00
2023-05-11T01:18:39.154Z,2.00
2023-05-11T01:21:16.961Z,4.00
2023-05-11T01:24:04.679Z,4.00
2023-05-11T01:26:57.473Z,5.40
2023-05-11T01:29:24.797Z,6.00
2023-05-11T01:31:56.078Z,4.00
2023-05-11T01:34:27.369Z,3.60
2023-05-11T01:37:15.752Z,6.80
2023-05-11T01:40:10.608Z,4.20
2023-05-11T01:42:46.366Z,4.80
2023-05-11T01:45:15.810Z,5.40
2023-05-11T01:47:47.286Z,4.00
2023-05-11T01:50:18.657Z,3.80
2023-05-11T01:52:48.525Z,4.00
2023-05-11T01:55:20.160Z,4.00
2023-05-11T01:57:50.043Z,3.80
2023-05-11T02:00:18.847Z,5.40
2023-05-11T02:02:49.323Z,3.80
2023-05-11T02:05:20.903Z,4.00
2023-05-11T02:07:51.604Z,4.00
2023-05-11T02:10:20.511Z,5.00
2023-05-11T02:12:53.078Z,3.80
2023-05-11T02:15:24.319Z,4.20
2023-05-11T02:17:55.022Z,3.00
2023-05-11T02:20:24.718Z,4.20
2023-05-11T02:22:54.980Z,6.00
2023-05-11T02:25:24.192Z,6.20
2023-05-11T02:27:51.975Z,4.00
2023-05-11T02:30:20.033Z,5.80
2023-05-11T02:32:56.762Z,5.40
2023-05-11T02:35:30.584Z,3.40
2023-05-11T02:38:02.137Z,4.00
2023-05-11T02:40:34.779Z,4.00
2023-05-11T02:43:10.674Z,1.00
2023-05-11T02:45:45.070Z,4.60
2023-05-11T02:48:21.729Z,5.20
2023-05-11T02:50:52.768Z,3.40
2023-05-11T02:53:25.934Z,6.60
2023-05-11T02:55:55.641Z,3.00
2023-05-11T02:58:24.084Z,4.00
2023-05-11T03:01:00.343Z,6.00
2023-05-11T03:03:28.437Z,4.00
2023-05-11T03:05:55.670Z,4.60
2023-05-11T03:08:23.225Z,6.20
2023-05-11T03:10:51.863Z,6.00
2023-05-11T03:13:22.075Z,6.00
2023-05-11T03:15:51.081Z,3.80
2023-05-11T03:18:19.460Z,1.60
2023-05-11T03:20:49.167Z,3.60
2023-05-11T03:23:19.859Z,4.20
2023-05-11T03:25:47.894Z,6.40
2023-05-11T03:28:16.087Z,4.40
2023-05-11T03:30:53.448Z,5.40
2023-05-11T03:33:21.358Z,4.60
2023-05-11T03:35:51.264Z,5.60
2023-05-11T03:38:24.676Z,5.00
2023-05-11T03:40:55.205Z,7.20
2023-05-11T03:43:23.492Z,6.40
2023-05-11T03:45:54.346Z,4.60
2023-05-11T03:48:23.584Z,4.00
2023-05-11T03:50:52.898Z,4.00
2023-05-11T03:53:21.212Z,6.20
2023-05-11T03:55:50.229Z,4.40
2023-05-11T03:58:19.301Z,5.00
2023-05-11T04:00:47.102Z,6.40
2023-05-11T04:03:14.862Z,5.00
2023-05-11T04:05:42.232Z,2.40
2023-05-11T04:08:12.652Z,5.80
2023-05-11T04:10:40.276Z,4.60
2023-05-11T04:13:07.926Z,2.40
2023-05-11T04:15:37.880Z,2.60
2023-05-11T04:18:05.854Z,6.00
2023-05-11T04:20:33.425Z,4.40
2023-05-11T04:23:01.305Z,4.80
2023-05-11T04:25:31.076Z,4.60
2023-05-11T04:27:58.601Z,1.00
2023-05-11T04:30:26.060Z,5.80
2023-05-11T04:32:54.635Z,4.20
2023-05-11T04:35:22.426Z,5.00
2023-05-11T04:37:49.825Z,6.20
2023-05-11T04:40:17.662Z,4.00
2023-05-11T04:42:45.604Z,6.80
2023-05-11T04:45:17.050Z,4.80
2023-05-11T04:47:44.782Z,5.20
2023-05-11T04:50:12.704Z,5.00
2023-05-11T04:52:40.519Z,3.00
2023-05-11T04:55:08.824Z,2.40
2023-05-11T04:57:38.966Z,3.60
2023-05-11T05:00:09.133Z,4.80
2023-05-11T05:02:36.804Z,4.25
2023-05-11T05:05:04.579Z,4.50
2023-05-11T05:07:32.306Z,3.00
2023-05-11T05:09:59.950Z,4.50
2023-05-11T05:12:27.655Z,3.75
2023-05-11T05:14:55.102Z,4.00
2023-05-11T05:17:22.708Z,4.00
2023-05-11T05:19:50.754Z,3.00
2023-05-11T05:22:18.450Z,4.00
2023-05-11T05:24:45.800Z,3.00
2023-05-11T05:27:13.254Z,3.00
2023-05-11T05:29:41.144Z,2.00
2023-05-11T05:32:09.440Z,3.40
2023-05-11T05:34:37.178Z,4.00
2023-05-11T05:37:04.680Z,4.00
2023-05-11T05:39:32.562Z,4.00
2023-05-11T05:41:59.965Z,4.60
2023-05-11T05:44:28.201Z,3.00
2023-05-11T05:46:55.952Z,3.60
2023-05-11T05:49:23.716Z,3.00
2023-05-11T05:51:52.462Z,3.00
2023-05-11T05:54:20.131Z,4.00
2023-05-11T05:56:48.665Z,3.00
2023-05-11T05:59:16.205Z,4.20
2023-05-11T06:01:46.709Z,3.00
2023-05-11T06:04:16.352Z,2.20
2023-05-11T06:06:43.852Z,3.60
2023-05-11T06:09:11.624Z,3.20
2023-05-11T06:11:39.254Z,3.00
2023-05-11T06:14:07.125Z,3.20
2023-05-11T06:16:35.290Z,3.00
2023-05-11T06:19:02.973Z,2.80
2023-05-11T06:21:30.806Z,3.40
2023-05-11T06:23:59.139Z,3.20
2023-05-11T06:26:29.313Z,3.00
2023-05-11T06:28:57.227Z,4.00
2023-05-11T06:31:25.724Z,5.00
2023-05-11T06:33:53.962Z,3.20
2023-05-11T06:36:26.142Z,4.40
2023-05-11T06:38:53.749Z,3.00
2023-05-11T06:41:22.042Z,3.00
2023-05-11T06:43:49.648Z,3.60
2023-05-11T06:46:36.810Z,4.00
2023-05-11T06:49:05.252Z,3.00
2023-05-11T06:51:32.703Z,4.00
2023-05-11T06:54:00.483Z,3.00
2023-05-11T06:56:29.329Z,3.00
2023-05-11T06:58:57.140Z,3.00
2023-05-11T07:01:24.809Z,4.00
2023-05-11T07:03:55.469Z,3.40
2023-05-11T07:06:23.142Z,3.80
2023-05-11T07:08:51.168Z,4.40
2023-05-11T07:11:19.180Z,3.00
2023-05-11T07:13:46.735Z,2.00
2023-05-11T07:16:14.363Z,3.00
2023-05-11T07:18:42.093Z,3.00
2023-05-11T07:21:09.763Z,3.00
2023-05-11T07:23:37.680Z,2.00
2023-05-11T07:26:09.458Z,2.00
2023-05-11T07:28:37.486Z,3.20
2023-05-11T07:31:05.252Z,3.00
2023-05-11T07:33:34.923Z,1.00
2023-05-11T07:36:02.119Z,4.00
2023-05-11T07:38:29.480Z,1.60
2023-05-11T07:40:56.849Z,3.00
2023-05-11T07:43:24.091Z,3.00
2023-05-11T07:45:51.669Z,3.00
2023-05-11T07:48:19.298Z,2.20
2023-05-11T07:50:46.641Z,3.00
2023-05-11T07:53:13.871Z,3.60
2023-05-11T07:55:41.111Z,1.80
2023-05-11T07:58:08.621Z,2.60
2023-05-11T08:00:36.044Z,2.20
2023-05-11T08:03:03.668Z,1.60
2023-05-11T08:05:33.634Z,2.00
2023-05-11T08:08:02.107Z,2.00
2023-05-11T08:10:29.997Z,2.20
2023-05-11T08:12:57.691Z,2.40
2023-05-11T08:15:25.333Z,1.80
2023-05-11T08:17:53.056Z,3.20
2023-05-11T08:20:20.608Z,2.00
2023-05-11T08:22:48.390Z,3.00
2023-05-11T08:25:16.704Z,2.20
2023-05-11T08:27:44.907Z,2.00
2023-05-11T08:30:12.885Z,1.60
2023-05-11T08:35:11.153Z,2.00
2023-05-11T08:37:38.783Z,1.00
2023-05-11T08:40:07.327Z,2.80
2023-05-11T08:42:35.794Z,2.20
2023-05-11T08:45:05.130Z,1.60
2023-05-11T08:47:33.666Z,2.00
2023-05-11T08:50:01.358Z,3.00
2023-05-11T08:52:28.839Z,3.00
2023-05-11T08:54:56.647Z,2.00
2023-05-11T08:57:25.170Z,2.00
2023-05-11T08:59:53.623Z,1.60
2023-05-11T09:02:21.247Z,2.40
2023-05-11T09:04:51.289Z,1.00
2023-05-11T09:07:20.091Z,2.40
2023-05-11T09:09:48.290Z,1.40
2023-05-11T09:12:17.291Z,2.60
2023-05-11T09:14:45.222Z,2.00
2023-05-11T09:17:12.941Z,2.00
2023-05-11T09:19:59.773Z,1.00
2023-05-11T09:22:30.015Z,2.00
2023-05-11T09:25:01.079Z,2.20
2023-05-11T09:27:28.730Z,1.40
2023-05-11T09:29:56.165Z,1.00
2023-05-11T09:32:24.776Z,2.00
2023-05-11T09:34:52.321Z,2.20
2023-05-11T09:37:20.279Z,2.00
2023-05-11T09:40:25.103Z,2.00
2023-05-11T09:42:43.585Z,1.40
2023-05-11T09:45:11.387Z,2.00
2023-05-11T09:47:41.246Z,2.00
2023-05-11T09:50:26.198Z,2.00
2023-05-11T09:52:54.016Z,2.00
2023-05-11T09:55:21.298Z,2.00
2023-05-11T09:57:55.454Z,1.00
2023-05-11T10:00:23.181Z,1.00
2023-05-11T10:03:08.489Z,2.00
2023-05-11T10:05:37.036Z,1.20
2023-05-11T10:08:06.297Z,2.00
2023-05-11T10:10:34.880Z,2.00
2023-05-11T10:13:03.659Z,2.00
2023-05-11T10:15:35.561Z,2.00
2023-05-11T10:18:03.275Z,2.00
2023-05-11T10:20:30.916Z,2.20
2023-05-11T10:22:58.686Z,1.00
2023-05-11T10:25:29.613Z,2.00
2023-05-11T10:27:58.528Z,2.00
2023-05-11T10:30:26.481Z,2.60
2023-05-11T10:32:56.382Z,1.60
2023-05-11T10:35:24.324Z,2.00
2023-05-11T10:37:52.202Z,1.40
2023-05-11T10:40:20.537Z,2.00
2023-05-11T10:43:25.172Z,0.00
2023-05-11T10:45:57.639Z,2.00
2023-05-11T10:48:36.845Z,1.20
2023-05-11T10:51:25.636Z,0.00
2023-05-11T10:54:06.520Z,2.00
2023-05-11T10:56:43.038Z,2.60
2023-05-11T10:59:29.084Z,2.00
2023-05-11T11:01:59.583Z,1.00
2023-05-11T11:04:46.117Z,2.00
2023-05-11T11:07:18.778Z,3.00
2023-05-11T11:10:01.977Z,1.20
2023-05-11T11:12:30.286Z,2.00
2023-05-11T11:15:10.442Z,2.20
2023-05-11T11:17:38.210Z,1.60
2023-05-11T11:20:07.723Z,2.00
2023-05-11T11:22:35.376Z,2.80
2023-05-11T11:25:07.130Z,2.40
2023-05-11T11:27:40.974Z,2.00
2023-05-11T11:30:29.369Z,1.00
2023-05-11T11:33:17.037Z,1.00
2023-05-11T11:35:46.377Z,1.00
2023-05-11T11:38:18.946Z,1.00
2023-05-11T11:40:54.311Z,1.80
2023-05-11T11:43:43.880Z,2.00
2023-05-11T11:46:30.263Z,1.20
2023-05-11T11:49:10.382Z,2.80
2023-05-11T11:51:40.725Z,1.60
2023-05-11T11:54:09.085Z,2.00
2023-05-11T11:56:40.625Z,1.80
2023-05-11T11:59:12.001Z,1.00
2023-05-11T12:01:40.750Z,1.00
2023-05-11T12:04:28.492Z,1.80
2023-05-11T12:07:01.598Z,2.00
2023-05-11T12:09:29.552Z,2.00
2023-05-11T12:11:58.843Z,2.00
2023-05-11T12:14:27.761Z,2.00
2023-05-11T12:17:05.454Z,2.00
2023-05-11T12:19:32.755Z,1.40
2023-05-11T12:22:00.634Z,2.00
2023-05-11T12:24:28.398Z,2.80
2023-05-11T12:26:57.511Z,1.00
2023-05-11T12:29:25.360Z,2.00
2023-05-11T12:31:53.476Z,2.20
2023-05-11T12:34:25.301Z,2.00
2023-05-11T12:36:54.920Z,0.20
2023-05-11T12:39:25.128Z,1.60
2023-05-11T12:41:55.651Z,2.00
2023-05-11T12:44:26.204Z,1.20
2023-05-11T12:46:54.577Z,0.80
2023-05-11T12:49:27.973Z,2.40
2023-05-11T12:52:02.924Z,2.20
2023-05-11T12:54:35.573Z,1.40
2023-05-11T12:57:04.284Z,2.00
2023-05-11T12:59:38.428Z,2.20
2023-05-11T13:02:18.928Z,2.00
2023-05-11T13:04:47.773Z,3.00
2023-05-11T13:07:26.458Z,2.00
2023-05-11T13:10:01.437Z,1.00
2023-05-11T13:12:32.329Z,2.40
2023-05-11T13:15:15.669Z,0.40
2023-05-11T13:17:44.294Z,2.00
2023-05-11T13:20:17.466Z,2.00
2023-05-11T13:22:45.301Z,1.80
2023-05-11T13:25:14.115Z,1.00
2023-05-11T13:27:41.610Z,2.40
2023-05-11T13:30:10.199Z,2.00
2023-05-11T13:32:38.741Z,2.80
2023-05-11T13:35:07.223Z,2.20
2023-05-11T13:37:34.640Z,2.00
2023-05-11T13:40:02.344Z,2.00
2023-05-11T13:42:30.093Z,3.00
2023-05-11T13:44:57.649Z,1.80
2023-05-11T13:47:25.387Z,2.40
2023-05-11T13:49:54.939Z,2.20
2023-05-11T13:52:22.703Z,2.40
2023-05-11T13:54:50.216Z,1.80
2023-05-11T13:57:17.952Z,2.00
2023-05-11T13:59:45.720Z,2.00
2023-05-11T14:02:13.333Z,2.00
2023-05-11T14:04:41.918Z,2.00
2023-05-11T14:07:09.920Z,2.60
2023-05-11T14:09:37.510Z,2.80
2023-05-11T14:12:05.497Z,2.00
2023-05-11T14:14:33.477Z,2.00
2023-05-11T14:17:01.138Z,2.40
2023-05-11T14:19:28.795Z,1.60
2023-05-11T14:21:57.252Z,2.00
2023-05-11T14:24:24.793Z,3.00
2023-05-11T14:26:52.810Z,2.00
2023-05-11T14:29:20.290Z,2.60
2023-05-11T14:31:48.534Z,1.40
2023-05-11T14:34:16.089Z,2.60
2023-05-11T14:36:43.772Z,2.00
2023-05-11T14:39:11.483Z,2.00
2023-05-11T14:41:39.085Z,1.80
2023-05-11T14:44:06.556Z,2.60
2023-05-11T14:46:33.973Z,0.00
2023-05-11T14:49:01.340Z,2.00
2023-05-11T14:51:29.002Z,2.00
2023-05-11T14:53:56.302Z,2.00
2023-05-11T14:56:23.771Z,1.60
2023-05-11T14:58:51.147Z,2.00
2023-05-11T15:01:18.669Z,2.40
2023-05-11T15:03:46.215Z,1.00
2023-05-11T15:06:21.350Z,3.40
2023-05-11T15:08:50.088Z,1.80
2023-05-11T15:11:18.343Z,1.00
2023-05-11T15:13:47.819Z,2.00
2023-05-11T15:16:15.214Z,1.20
2023-05-11T15:18:43.164Z,1.25
2023-05-11T15:21:10.595Z,2.00
2023-05-11T15:23:38.041Z,0.00
2023-05-11T15:26:05.361Z,1.00
2023-05-11T15:28:32.566Z,2.25
2023-05-11T15:30:59.749Z,2.50
2023-05-11T15:33:27.138Z,2.00
2023-05-11T15:35:54.465Z,2.00
2023-05-11T15:38:21.932Z,1.50
2023-05-11T15:40:49.118Z,2.00
2023-05-11T15:43:17.025Z,2.00
2023-05-11T15:45:44.505Z,3.00
2023-05-11T15:48:12.532Z,2.00
2023-05-11T15:50:39.756Z,1.50
2023-05-11T15:53:07.080Z,1.75
2023-05-11T15:55:34.667Z,3.25
2023-05-11T15:58:01.967Z,2.00
2023-05-11T16:00:29.291Z,2.25
2023-05-11T16:02:56.629Z,1.25
2023-05-11T16:05:23.939Z,2.00
2023-05-11T16:07:51.648Z,2.00
2023-05-11T16:10:19.141Z,3.00
2023-05-11T16:12:47.004Z,2.00
2023-05-11T16:15:14.260Z,2.00
2023-05-11T16:17:41.532Z,3.00
2023-05-11T16:20:09.574Z,2.00
2023-05-11T16:22:39.064Z,3.00
2023-05-11T16:25:06.829Z,1.00
2023-05-11T16:27:34.174Z,2.00
2023-05-11T16:30:08.553Z,1.75
2023-05-11T16:32:46.016Z,2.50
2023-05-11T16:35:13.876Z,1.25
2023-05-11T16:37:43.321Z,1.50
2023-05-11T16:40:11.193Z,1.00
2023-05-11T16:42:38.752Z,1.50
2023-05-11T16:45:06.786Z,1.25
2023-05-11T16:47:34.640Z,1.75
2023-05-11T16:50:02.286Z,2.00
2023-05-11T16:52:29.798Z,1.75
2023-05-11T16:54:59.092Z,1.25
2023-05-11T16:57:27.062Z,2.00
2023-05-11T16:59:55.643Z,2.00
2023-05-11T17:02:23.527Z,2.00
2023-05-11T17:04:50.776Z,2.00
2023-05-11T17:07:19.248Z,2.00
2023-05-11T17:09:46.778Z,1.25
2023-05-11T17:12:14.069Z,3.00
2023-05-11T17:14:41.501Z,0.00
2023-05-11T17:17:08.828Z,2.25
2023-05-11T17:19:36.169Z,2.00
2023-05-11T17:22:03.597Z,2.00
2023-05-11T17:24:31.495Z,1.25
2023-05-11T17:26:58.870Z,1.25
2023-05-11T17:29:26.386Z,2.25
2023-05-11T17:31:53.790Z,2.00
2023-05-11T17:34:23.636Z,2.00
2023-05-11T17:36:53.246Z,2.00
2023-05-11T17:39:20.880Z,2.00
2023-05-11T17:41:48.246Z,1.25
2023-05-11T17:44:15.487Z,1.50
2023-05-11T17:46:43.345Z,2.00
2023-05-11T17:49:10.692Z,1.75
2023-05-11T17:51:37.984Z,2.00
2023-05-11T17:54:05.337Z,0.75
2023-05-11T17:56:32.973Z,2.50
2023-05-11T17:59:00.164Z,2.00
2023-05-11T18:01:28.812Z,2.25
2023-05-11T18:03:59.067Z,3.50
2023-05-11T18:06:27.960Z,2.50
2023-05-11T18:08:55.186Z,1.75
2023-05-11T18:11:22.488Z,2.00
2023-05-11T18:13:49.817Z,2.00
2023-05-11T18:16:18.122Z,3.00
2023-05-11T18:18:45.764Z,2.00
2023-05-11T18:21:13.068Z,2.00
2023-05-11T18:23:40.316Z,3.75
2023-05-11T18:26:07.812Z,2.75
2023-05-11T18:28:35.027Z,2.50
2023-05-11T18:31:02.563Z,3.25
2023-05-11T18:33:29.867Z,3.00
2023-05-11T18:35:57.198Z,3.25
2023-05-11T18:38:24.426Z,3.00
2023-05-11T18:40:53.013Z,3.00
2023-05-11T18:43:20.301Z,4.00
2023-05-11T18:45:47.771Z,2.40
2023-05-11T18:48:15.013Z,3.00
2023-05-11T18:50:42.395Z,2.00
2023-05-11T18:53:09.632Z,2.00
2023-05-11T18:55:52.035Z,2.00
2023-05-11T18:58:20.905Z,2.60
2023-05-11T19:00:49.181Z,2.60
2023-05-11T19:03:18.297Z,2.40
2023-05-11T19:05:45.886Z,2.00
2023-05-11T19:08:13.235Z,1.20
2023-05-11T19:10:40.991Z,0.40
2023-05-11T19:13:08.585Z,2.20
2023-05-11T19:15:36.162Z,3.00
2023-05-11T19:18:03.437Z,3.00
2023-05-11T19:20:30.766Z,3.00
2023-05-11T19:22:58.063Z,2.60
2023-05-11T19:25:25.369Z,2.00
2023-05-11T19:27:52.668Z,2.20
2023-05-11T19:30:20.390Z,2.00
2023-05-11T19:32:49.068Z,2.60
2023-05-11T19:35:16.989Z,3.80
2023-05-11T19:37:46.519Z,2.00
2023-05-11T19:42:46.829Z,2.00
2023-05-11T19:45:17.822Z,2.80
2023-05-11T19:47:45.171Z,2.60
2023-05-11T19:50:14.724Z,2.80
2023-05-11T19:52:42.230Z,2.00
2023-05-11T19:55:09.734Z,2.20
2023-05-11T19:57:37.818Z,2.20
2023-05-11T20:00:06.731Z,2.00
2023-05-11T20:02:34.471Z,3.00
2023-05-11T20:05:02.620Z,2.40
2023-05-11T20:07:29.943Z,2.00
2023-05-11T20:09:57.285Z,3.00
2023-05-11T20:12:24.448Z,3.20
2023-05-11T20:14:52.943Z,2.00
2023-05-11T20:17:20.320Z,3.00
2023-05-11T20:19:47.690Z,3.20
2023-05-11T20:22:15.065Z,3.00
2023-05-11T20:24:42.345Z,3.60
2023-05-11T20:27:11.300Z,4.00
2023-05-11T20:29:40.649Z,4.20
2023-05-11T20:32:08.361Z,2.00
2023-05-11T20:34:36.112Z,3.00
2023-05-11T20:37:03.988Z,5.00
2023-05-11T20:39:31.778Z,3.00
2023-05-11T20:42:00.377Z,3.40
2023-05-11T20:44:28.496Z,4.00
2023-05-11T20:46:56.089Z,3.40
2023-05-11T20:49:37.545Z,1.00
2023-05-11T20:52:06.879Z,4.60
2023-05-11T20:54:35.957Z,4.40
2023-05-11T20:57:04.684Z,3.40
2023-05-11T21:02:03.870Z,3.60
2023-05-11T21:04:31.879Z,3.80
2023-05-11T21:06:59.444Z,4.00
2023-05-11T21:09:27.069Z,4.60
2023-05-11T21:11:54.602Z,4.40
2023-05-11T21:14:22.212Z,4.00
2023-05-11T21:16:49.977Z,3.20
2023-05-11T21:19:18.665Z,5.00
2023-05-11T21:21:48.900Z,3.60
2023-05-11T21:24:17.151Z,4.00
2023-05-11T21:26:47.924Z,4.20
2023-05-11T21:29:15.952Z,4.60
2023-05-11T21:31:43.692Z,5.40
2023-05-11T21:34:12.116Z,4.20
2023-05-11T21:36:41.662Z,5.00
2023-05-11T21:39:09.246Z,3.40
2023-05-11T21:41:37.017Z,4.20
2023-05-11T21:44:04.838Z,5.20
2023-05-11T21:46:32.890Z,5.00
2023-05-11T21:49:00.480Z,5.40
2023-05-11T21:51:32.848Z,3.40
2023-05-11T21:54:00.916Z,5.40
2023-05-11T21:56:28.528Z,3.80
2023-05-11T21:58:56.161Z,5.60
2023-05-11T22:01:23.856Z,6.00
2023-05-11T22:03:51.281Z,7.20
2023-05-11T22:06:18.847Z,11.40
2023-05-11T22:08:46.656Z,9.20
2023-05-11T22:11:14.329Z,10.00
2023-05-11T22:13:41.900Z,8.40
2023-05-11T22:16:09.455Z,9.60
2023-05-11T22:18:37.140Z,7.20
2023-05-11T22:21:04.979Z,12.40
2023-05-11T22:23:32.434Z,9.60
2023-05-11T22:25:59.798Z,9.20
2023-05-11T22:28:27.340Z,10.00
2023-05-11T22:30:54.868Z,6.20
2023-05-11T22:33:22.486Z,6.20
2023-05-11T22:35:49.964Z,6.00
2023-05-11T22:38:17.597Z,10.20
2023-05-11T22:40:45.123Z,13.00
2023-05-11T22:43:12.868Z,8.40
2023-05-11T22:45:40.712Z,6.60
2023-05-11T22:48:08.180Z,9.80
2023-05-11T22:50:36.031Z,9.20
2023-05-11T22:53:03.488Z,17.60
2023-05-11T22:55:31.080Z,13.20
2023-05-11T22:57:58.955Z,6.60
2023-05-11T23:00:27.607Z,16.00
2023-05-11T23:02:55.289Z,16.80
2023-05-11T23:05:22.987Z,17.20
2023-05-11T23:07:50.433Z,7.00
2023-05-11T23:10:18.247Z,6.60
2023-05-11T23:12:46.318Z,11.40
2023-05-11T23:15:13.829Z,13.40
2023-05-11T23:17:41.569Z,11.60
2023-05-11T23:20:09.517Z,12.00
2023-05-11T23:22:37.053Z,11.80
2023-05-11T23:25:04.852Z,11.20
2023-05-11T23:27:32.270Z,12.00
2023-05-11T23:29:59.719Z,8.00
2023-05-11T23:32:27.111Z,10.80
2023-05-11T23:34:54.561Z,4.80
2023-05-11T23:37:22.686Z,6.00
2023-05-11T23:39:50.181Z,10.40
2023-05-11T23:42:17.696Z,12.40
2023-05-11T23:44:45.225Z,11.60
2023-05-11T23:47:13.057Z,12.80
2023-05-11T23:49:40.700Z,8.40
2023-05-11T23:52:08.280Z,10.00
2023-05-11T23:54:35.907Z,7.00
2023-05-11T23:57:03.464Z,5.60
2023-05-11T23:59:31.075Z,8.20
